Time;durP1;ratioP1;P1;durP2;ratioP2;P2;SDS_P1;SDS_P2;PMS_P1;PMS_P2;Temp;Humidity;BMP_temperature;BMP_pressure;BME280_temperature;BME280_humidity;BME280_pressure;Samples;Min_cycle;Max_cycle;Signal;HPM_P1;HPM_P2
2023/01/23 00:02:15;;;;;;;10.20;4.85;;;;;;;1.07;100.00;103125.28;4986596;28;20053;-71
2023/01/23 00:04:41;;;;;;;14.18;6.20;;;;;;;1.10;100.00;103133.13;4986555;28;20041;-71
2023/01/23 00:07:06;;;;;;;8.55;5.50;;;;;;;1.13;100.00;103133.03;4969355;28;20483;-71
2023/01/23 00:09:31;;;;;;;16.73;5.40;;;;;;;1.17;100.00;103137.31;4969131;28;20031;-72
2023/01/23 00:11:57;;;;;;;11.55;5.30;;;;;;;1.14;100.00;103132.09;4986556;28;20050;-71
2023/01/23 00:14:23;;;;;;;14.35;6.22;;;;;;;1.16;100.00;103132.94;4986901;28;20041;-72
2023/01/23 00:16:48;;;;;;;15.25;6.13;;;;;;;1.08;100.00;103131.41;5001239;28;20097;-72
2023/01/23 00:19:13;;;;;;;12.43;6.60;;;;;;;1.02;100.00;103124.56;4986685;28;20551;-72
2023/01/23 00:21:39;;;;;;;14.30;6.68;;;;;;;1.10;100.00;103143.66;5001410;28;20442;-72
2023/01/23 00:24:05;;;;;;;15.53;6.83;;;;;;;1.10;100.00;103138.38;4985366;28;20049;-72
2023/01/23 00:26:34;;;;;;;12.60;5.45;;;;;;;1.15;100.00;103140.91;4986069;28;20277;-72
2023/01/23 00:29:01;;;;;;;11.15;6.60;;;;;;;1.18;100.00;103138.16;4986631;28;20034;-72
2023/01/23 00:31:29;;;;;;;11.18;5.85;;;;;;;1.14;100.00;103129.47;4984739;28;20048;-72
2023/01/23 00:33:59;;;;;;;13.30;5.80;;;;;;;1.14;100.00;103128.63;4986612;28;20053;-71
2023/01/23 00:36:32;;;;;;;11.35;5.18;;;;;;;1.18;100.00;103125.00;4986426;28;20518;-72
2023/01/23 00:38:57;;;;;;;13.25;5.25;;;;;;;1.18;100.00;103125.88;4977090;28;20077;-71
2023/01/23 00:41:23;;;;;;;11.85;5.10;;;;;;;1.13;100.00;103125.13;4984996;28;20038;-71
2023/01/23 00:43:50;;;;;;;11.43;5.70;;;;;;;1.11;100.00;103119.06;4984563;28;20098;-72
2023/01/23 00:46:19;;;;;;;19.23;5.90;;;;;;;1.12;100.00;103125.16;4985146;28;20057;-72
2023/01/23 00:48:44;;;;;;;13.13;6.15;;;;;;;1.12;100.00;103119.91;4984702;28;20553;-72
2023/01/23 00:51:11;;;;;;;12.57;5.97;;;;;;;1.13;100.00;103122.50;4968897;28;20022;-71
2023/01/23 00:53:36;;;;;;;12.20;6.10;;;;;;;1.09;100.00;103115.59;5001101;28;20030;-71
2023/01/23 00:56:01;;;;;;;15.00;6.10;;;;;;;1.08;100.00;103111.25;4986320;28;20031;-72
2023/01/23 00:58:27;;;;;;;13.63;5.55;;;;;;;1.06;100.00;103113.06;4984841;28;20273;-72
2023/01/23 01:00:53;;;;;;;10.98;5.53;;;;;;;1.11;100.00;103120.81;4984625;28;20132;-71
2023/01/23 01:03:19;;;;;;;9.82;6.15;;;;;;;1.14;100.00;103118.97;4985223;28;20042;-71
2023/01/23 01:05:45;;;;;;;;;;;;;;;1.17;100.00;103124.16;4984836;28;20517;-72
2023/01/23 01:08:10;;;;;;;14.88;6.50;;;;;;;1.13;100.00;103111.97;4985299;28;20045;-71
2023/01/23 01:10:39;;;;;;;10.15;5.57;;;;;;;1.17;100.00;103113.63;4984368;28;20396;-71
2023/01/23 01:13:04;;;;;;;10.95;5.80;;;;;;;1.09;100.00;103114.75;4984872;28;20042;-72
2023/01/23 01:15:29;;;;;;;13.95;6.15;;;;;;;1.11;100.00;103111.16;4984544;28;20026;-72
2023/01/23 01:17:56;;;;;;;15.05;5.90;;;;;;;1.13;100.00;103111.13;4984679;28;20488;-72
2023/01/23 01:20:22;;;;;;;15.30;5.07;;;;;;;1.13;100.00;103109.34;4988831;28;20041;-72
2023/01/23 01:22:49;;;;;;;10.18;5.50;;;;;;;1.12;100.00;103112.00;4988520;28;20046;-72
2023/01/23 01:25:14;;;;;;;17.02;5.88;;;;;;;1.14;100.00;103116.31;4988588;28;20102;-72
2023/01/23 01:27:39;;;;;;;19.55;7.28;;;;;;;1.14;100.00;103112.84;4971723;28;20615;-72
2023/01/23 01:30:05;;;;;;;11.80;6.13;;;;;;;1.18;100.00;103110.06;4989873;28;20026;-72
2023/01/23 01:32:35;;;;;;;13.93;7.13;;;;;;;1.17;100.00;103124.16;4987618;28;20069;-73
2023/01/23 01:35:01;;;;;;;11.48;5.28;;;;;;;1.11;100.00;103108.53;4972042;28;20030;-71
2023/01/23 01:37:27;;;;;;;13.95;6.22;;;;;;;1.15;100.00;103111.94;4988101;28;20030;-72
2023/01/23 01:39:52;;;;;;;13.30;5.50;;;;;;;1.17;100.00;103118.88;4988288;28;20057;-71
2023/01/23 01:42:17;;;;;;;11.17;6.17;;;;;;;1.20;100.00;103124.06;4987558;28;20285;-72
2023/01/23 01:45:00;;;;;;;15.10;6.73;;;;;;;1.18;100.00;103125.88;4988467;28;20312;-72
2023/01/23 01:47:27;;;;;;;14.27;6.35;;;;;;;1.20;100.00;103123.19;4988233;28;20289;-72
2023/01/23 01:49:57;;;;;;;14.82;6.80;;;;;;;1.21;100.00;103128.41;4971487;28;20084;-71
2023/01/23 01:52:23;;;;;;;10.82;5.65;;;;;;;1.15;100.00;103115.44;4989176;28;20108;-71
2023/01/23 01:54:57;;;;;;;14.15;6.20;;;;;;;1.14;100.00;103118.09;4971096;28;20503;-72
2023/01/23 01:57:25;;;;;;;12.52;6.20;;;;;;;1.14;100.00;103126.00;4971783;28;20514;-71
2023/01/23 01:59:57;;;;;;;13.10;6.32;;;;;;;1.17;100.00;103121.53;4979496;28;20130;-71
2023/01/23 02:02:28;;;;;;;13.15;6.25;;;;;;;1.20;100.00;103121.41;4987963;28;20023;-71
2023/01/23 02:05:00;;;;;;;9.25;5.22;;;;;;;1.19;100.00;103122.31;4977013;28;20574;-72
2023/01/23 02:08:05;;;;;;;11.90;6.38;;;;;;;1.26;100.00;103123.91;4972139;28;20038;-72
2023/01/23 02:10:35;;;;;;;12.57;5.68;;;;;;;1.21;100.00;103114.38;4982271;28;20053;-72
2023/01/23 02:13:22;;;;;;;12.13;4.80;;;;;;;1.17;100.00;103108.38;4989225;28;20507;-71
2023/01/23 02:15:50;;;;;;;13.48;5.35;;;;;;;1.16;100.00;103108.41;4986729;28;20031;-72
2023/01/23 02:18:16;;;;;;;9.93;5.15;;;;;;;1.19;100.00;103111.78;4987624;28;20034;-71
2023/01/23 02:20:41;;;;;;;10.52;4.72;;;;;;;1.13;100.00;103114.63;4986997;28;20027;-71
2023/01/23 02:23:28;;;;;;;14.03;5.40;;;;;;;1.10;100.00;103112.06;4988807;28;20448;-72
2023/01/23 02:25:56;;;;;;;10.50;5.15;;;;;;;1.13;100.00;103106.72;4986893;28;20873;-72
2023/01/23 02:28:22;;;;;;;11.88;5.47;;;;;;;1.10;100.00;103105.94;4987381;28;20036;-72
2023/01/23 02:30:49;;;;;;;9.82;5.30;;;;;;;1.11;100.00;103108.53;4985811;28;20422;-72
2023/01/23 02:33:18;;;;;;;13.05;5.22;;;;;;;1.13;100.00;103122.50;4986941;28;20038;-72
2023/01/23 02:35:43;;;;;;;13.15;6.28;;;;;;;1.07;100.00;103106.88;4971249;28;20045;-72
2023/01/23 02:38:11;;;;;;;11.45;6.18;;;;;;;1.11;100.00;103116.41;4986970;28;20041;-72
2023/01/23 02:40:40;;;;;;;11.75;6.82;;;;;;;1.13;100.00;103117.25;4984223;28;20212;-72
2023/01/23 02:43:20;;;;;;;10.98;5.80;;;;;;;1.09;100.00;103109.47;4970326;28;20029;-71
2023/01/23 02:45:53;;;;;;;15.13;6.47;;;;;;;1.10;100.00;103117.34;4971807;28;20553;-72
2023/01/23 02:48:19;;;;;;;10.65;6.47;;;;;;;1.10;100.00;103111.19;4970499;28;20175;-72
2023/01/23 02:50:45;;;;;;;11.68;5.68;;;;;;;1.08;100.00;103116.50;4987870;28;20062;-71
2023/01/23 02:53:11;;;;;;;13.15;6.32;;;;;;;1.07;100.00;103114.78;4986685;28;20065;-71
2023/01/23 02:55:41;;;;;;;10.40;6.72;;;;;;;0.98;100.00;103108.03;4986733;28;20053;-72
2023/01/23 03:00:50;;;;;;;12.40;5.78;;;;;;;1.05;100.00;103113.94;4985011;28;20034;-72
2023/01/23 03:03:15;;;;;;;12.27;5.35;;;;;;;1.08;100.00;103123.53;4986969;28;20085;-72
2023/01/23 03:05:41;;;;;;;11.13;5.50;;;;;;;1.09;100.00;103115.59;4986023;28;20032;-72
2023/01/23 03:08:06;;;;;;;10.05;6.22;;;;;;;1.03;100.00;103116.66;4986340;28;20053;-71
2023/01/23 03:10:32;;;;;;;13.10;7.05;;;;;;;1.03;100.00;103116.66;4986101;28;20085;-72
2023/01/23 03:13:00;;;;;;;10.95;6.05;;;;;;;1.02;100.00;103121.94;4986830;28;20076;-72
2023/01/23 03:15:27;;;;;;;11.82;6.00;;;;;;;1.00;100.00;103126.38;4966361;28;20689;-71
2023/01/23 03:17:53;;;;;;;12.63;6.35;;;;;;;1.03;100.00;103131.53;4969807;28;20030;-71
2023/01/23 03:20:19;;;;;;;13.45;5.82;;;;;;;1.00;100.00;103129.84;4986755;28;20085;-72
2023/01/23 03:22:45;;;;;;;11.43;5.43;;;;;;;0.99;100.00;103135.19;4986017;28;20453;-72
2023/01/23 03:25:11;;;;;;;11.45;5.13;;;;;;;0.99;100.00;103138.66;4985946;28;20038;-72
2023/01/23 03:27:36;;;;;;;16.02;6.05;;;;;;;0.94;100.00;103130.06;4986029;28;20084;-72
2023/01/23 03:30:12;;;;;;;12.93;5.20;;;;;;;0.94;100.00;103140.56;4970360;28;20479;-72
2023/01/23 03:32:39;;;;;;;17.50;6.78;;;;;;;0.93;100.00;103143.22;4985809;28;20026;-72
2023/01/23 03:35:06;;;;;;;11.77;5.82;;;;;;;0.97;100.00;103144.88;4981949;28;20026;-72
2023/01/23 03:37:31;;;;;;;12.10;5.63;;;;;;;0.98;100.00;103151.84;4986977;28;20026;-72
2023/01/23 03:42:41;;;;;;;11.82;6.20;;;;;;;0.98;100.00;103146.59;4986926;28;20038;-72
2023/01/23 03:45:09;;;;;;;13.30;6.70;;;;;;;0.91;100.00;103147.66;4985915;28;20034;-72
2023/01/23 03:47:35;;;;;;;12.57;6.78;;;;;;;0.93;100.00;103145.88;4985936;28;20079;-72
2023/01/23 03:50:00;;;;;;;16.00;7.15;;;;;;;0.93;100.00;103145.88;4986613;28;20081;-73
2023/01/23 03:52:28;;;;;;;11.02;6.55;;;;;;;0.92;100.00;103149.41;4985933;28;20050;-72
2023/01/23 03:54:56;;;;;;;20.00;7.18;;;;;;;0.89;100.00;103158.25;4985145;28;20030;-72
2023/01/23 03:57:21;;;;;;;15.43;7.15;;;;;;;0.98;100.00;103160.63;4969850;28;20106;-72
2023/01/23 03:59:46;;;;;;;11.88;7.00;;;;;;;0.95;100.00;103159.84;4983270;28;20042;-72
2023/01/23 04:02:13;;;;;;;;;;;;;;;0.98;100.00;103172.91;4985971;28;20112;-72
2023/01/23 04:04:38;;;;;;;13.75;7.40;;;;;;;0.94;100.00;103171.28;4985137;28;20751;-72
2023/01/23 04:07:07;;;;;;;19.80;7.82;;;;;;;0.97;100.00;103176.44;4987118;28;20030;-72
2023/01/23 04:09:33;;;;;;;15.77;7.95;;;;;;;0.98;100.00;103175.53;4969103;28;20022;-73
2023/01/23 04:11:59;;;;;;;16.15;8.20;;;;;;;0.93;100.00;103178.28;4985333;28;20061;-72
2023/01/23 04:14:26;;;;;;;18.60;9.00;;;;;;;0.94;100.00;103181.81;4997644;28;20089;-71
2023/01/23 04:16:52;;;;;;;18.02;9.45;;;;;;;0.95;100.00;103176.47;4984875;28;20085;-72
2023/01/23 04:19:18;;;;;;;18.17;8.68;;;;;;;0.97;100.00;103179.09;4985067;28;20080;-72
2023/01/23 04:21:45;;;;;;;18.42;8.25;;;;;;;0.99;100.00;103183.41;4984811;28;20022;-73
2023/01/23 04:24:11;;;;;;;24.27;8.90;;;;;;;1.00;100.00;103169.31;4985403;28;20058;-72
2023/01/23 04:26:36;;;;;;;17.40;7.82;;;;;;;0.96;100.00;103174.69;4985928;28;20089;-72
2023/01/23 04:29:03;;;;;;;22.58;8.23;;;;;;;0.98;100.00;103175.53;4968714;28;20030;-72
2023/01/23 04:31:29;;;;;;;20.40;9.43;;;;;;;0.99;100.00;103182.53;4984809;28;20026;-71
2023/01/23 04:33:54;;;;;;;18.13;8.77;;;;;;;1.00;100.00;103179.84;4985399;28;20076;-73
2023/01/23 04:36:21;;;;;;;25.05;9.52;;;;;;;1.00;100.00;103182.47;4985116;28;20089;-71
2023/01/23 04:38:46;;;;;;;21.63;9.40;;;;;;;1.04;100.00;103191.16;4965030;28;20035;-71
2023/01/23 04:41:21;;;;;;;18.75;9.23;;;;;;;1.00;100.00;103173.72;4985199;28;20030;-72
2023/01/23 04:43:48;;;;;;;19.92;9.55;;;;;;;1.07;100.00;103177.06;4968533;28;20037;-71
2023/01/23 04:46:13;;;;;;;21.58;8.57;;;;;;;1.05;100.00;103182.34;4968828;28;20027;-73
2023/01/23 04:48:45;;;;;;;18.38;8.43;;;;;;;1.01;100.00;103181.59;4984935;28;20137;-71
2023/01/23 04:51:11;;;;;;;;;;;;;;;1.00;100.00;103186.88;4985366;28;20468;-72
2023/01/23 04:53:37;;;;;;;13.35;8.32;;;;;;;1.03;100.00;103184.16;4985139;28;19929;-71
2023/01/23 04:56:03;;;;;;;18.83;8.60;;;;;;;1.01;100.00;103186.00;4972677;28;20030;-71
2023/01/23 04:58:28;;;;;;;;;;;;;;;1.01;100.00;103191.25;4989592;28;20030;-71
2023/01/23 05:01:06;;;;;;;18.05;8.57;;;;;;;1.02;100.00;103192.97;4984763;28;19926;-71
2023/01/23 05:03:34;;;;;;;16.65;7.80;;;;;;;1.04;100.00;103197.28;4986104;28;20141;-73
2023/01/23 05:05:59;;;;;;;21.92;10.00;;;;;;;1.03;100.00;103194.69;4988402;28;20037;-71
2023/01/23 05:08:25;;;;;;;16.63;9.02;;;;;;;1.04;100.00;103196.44;4972663;28;20395;-71
2023/01/23 05:11:04;;;;;;;26.02;9.10;;;;;;;1.05;100.00;103206.91;4988286;28;20018;-73
2023/01/23 05:13:29;;;;;;;13.82;7.40;;;;;;;1.03;100.00;103206.09;4988826;28;20100;-72
2023/01/23 05:15:56;;;;;;;23.55;10.90;;;;;;;1.05;100.00;103203.41;4971823;28;20042;-72
2023/01/23 05:18:21;;;;;;;20.02;8.77;;;;;;;1.05;100.00;103203.41;4988675;28;20042;-72
2023/01/23 05:20:46;;;;;;;24.30;9.52;;;;;;;1.01;100.00;103201.78;4986819;28;20139;-72
2023/01/23 05:23:12;;;;;;;20.17;9.40;;;;;;;1.01;100.00;103199.16;4972365;28;20029;-72
2023/01/23 05:25:46;;;;;;;17.58;8.35;;;;;;;1.03;100.00;103205.19;4973258;28;20050;-72
2023/01/23 05:28:12;;;;;;;19.00;9.63;;;;;;;1.00;100.00;103208.78;4988302;28;20026;-72
2023/01/23 05:30:43;;;;;;;20.00;9.60;;;;;;;1.04;100.00;103207.81;4988397;28;20034;-73
2023/01/23 05:33:17;;;;;;;16.20;8.68;;;;;;;1.10;100.00;103206.81;4987774;28;20050;-71
2023/01/23 05:35:43;;;;;;;14.45;7.95;;;;;;;1.08;100.00;103221.75;4988169;28;20099;-71
2023/01/23 05:38:11;;;;;;;18.83;10.23;;;;;;;1.06;100.00;103220.94;4988683;28;20030;-71
2023/01/23 05:40:36;;;;;;;15.95;7.65;;;;;;;1.00;100.00;103221.94;4987969;28;20038;-71
2023/01/23 05:43:14;;;;;;;20.20;9.63;;;;;;;0.96;100.00;103209.78;4989457;28;20038;-73
2023/01/23 05:46:06;;;;;;;18.13;9.32;;;;;;;1.01;100.00;103220.19;4988072;28;20076;-72
2023/01/23 05:48:41;;;;;;;21.90;8.75;;;;;;;1.06;100.00;103223.56;4972958;28;20033;-73
2023/01/23 05:51:09;;;;;;;13.95;6.72;;;;;;;1.01;100.00;103228.09;4987361;28;20038;-72
2023/01/23 05:53:34;;;;;;;14.60;8.20;;;;;;;1.03;100.00;103231.50;4987888;28;20030;-71
2023/01/23 05:56:05;;;;;;;14.65;7.57;;;;;;;1.03;100.00;103227.13;4971807;28;20431;-72
2023/01/23 05:58:31;;;;;;;13.15;8.20;;;;;;;1.04;100.00;103226.22;4971310;28;20508;-72
2023/01/23 06:01:29;;;;;;;18.52;7.82;;;;;;;1.08;100.00;103231.41;4982171;28;20104;-72
2023/01/23 06:04:15;;;;;;;19.58;7.78;;;;;;;1.01;100.00;103217.56;4987573;28;20080;-72
2023/01/23 06:06:59;;;;;;;16.08;7.07;;;;;;;1.01;100.00;103207.03;4987714;28;20038;-73
2023/01/23 06:09:24;;;;;;;18.52;7.20;;;;;;;1.04;100.00;103209.56;4987233;28;20480;-72
2023/01/23 06:11:50;;;;;;;14.88;7.60;;;;;;;1.05;100.00;103212.19;4987219;28;20038;-72
2023/01/23 06:14:15;;;;;;;17.60;9.23;;;;;;;1.07;100.00;103212.13;4987511;28;20113;-72
2023/01/23 06:16:40;;;;;;;15.68;7.85;;;;;;;1.03;100.00;103206.09;4970927;28;20089;-71
2023/01/23 06:19:08;;;;;;;;;;;;;;;1.03;100.00;103205.19;4971552;28;20411;-71
2023/01/23 06:21:35;;;;;;;15.43;7.43;;;;;;;1.06;100.00;103210.41;4986936;28;19940;-71
2023/01/23 06:24:01;;;;;;;15.80;8.45;;;;;;;1.05;100.00;103212.19;4971340;28;20484;-71
2023/01/23 06:26:27;;;;;;;15.05;7.55;;;;;;;1.04;100.00;103207.81;4987025;28;20406;-72
2023/01/23 06:28:52;;;;;;;17.90;8.40;;;;;;;1.08;100.00;103205.09;4987185;28;20466;-71
2023/01/23 06:31:18;;;;;;;22.45;8.75;;;;;;;1.07;100.00;103206.84;4986820;28;20126;-71
2023/01/23 06:33:51;;;;;;;22.73;7.90;;;;;;;1.09;100.00;103214.72;4987227;28;20042;-72
2023/01/23 06:36:19;;;;;;;17.33;7.47;;;;;;;1.02;100.00;103214.88;4970654;28;20030;-72
2023/01/23 06:38:45;;;;;;;13.00;7.78;;;;;;;1.07;100.00;103222.66;4987098;28;20116;-71
2023/01/23 06:43:37;;;;;;;22.07;9.30;;;;;;;1.09;100.00;103225.25;4980930;23;20050;-71
2023/01/23 06:46:07;;;;;;;15.52;8.70;;;;;;;1.06;100.00;103220.94;4960240;28;20059;-71
2023/01/23 06:48:32;;;;;;;19.05;8.77;;;;;;;1.05;100.00;103221.81;4952345;28;20031;-72
2023/01/23 06:50:59;;;;;;;13.15;7.05;;;;;;;1.08;100.00;103227.03;4964183;28;20122;-73
2023/01/23 06:53:26;;;;;;;19.73;8.43;;;;;;;1.06;100.00;103234.09;4957235;28;20047;-73
2023/01/23 06:55:52;;;;;;;15.27;8.05;;;;;;;1.05;100.00;103241.13;4956608;28;20035;-73
2023/01/23 06:58:18;;;;;;;15.23;8.43;;;;;;;1.08;100.00;103250.69;4964107;28;20023;-73
2023/01/23 07:00:44;;;;;;;17.55;9.15;;;;;;;1.10;100.00;103248.91;4955989;28;20042;-73
2023/01/23 07:03:14;;;;;;;13.95;7.45;;;;;;;1.17;100.00;103252.19;4949610;28;20046;-73
2023/01/23 07:05:42;;;;;;;17.83;8.70;;;;;;;1.14;100.00;103254.94;4963957;28;20039;-73
2023/01/23 07:08:08;;;;;;;15.40;8.55;;;;;;;1.16;100.00;103253.13;4946708;28;20023;-72
2023/01/23 07:10:36;;;;;;;20.85;7.93;;;;;;;1.11;100.00;103250.59;4958897;28;20146;-73
2023/01/23 07:13:10;;;;;;;15.35;7.07;;;;;;;1.12;100.00;103251.47;4942987;28;20046;-72
2023/01/23 07:15:36;;;;;;;14.48;7.90;;;;;;;1.16;100.00;103248.72;4946982;29;20580;-73
2023/01/23 07:18:01;;;;;;;17.85;8.52;;;;;;;1.10;100.00;103241.00;4947532;28;20085;-72
2023/01/23 07:20:27;;;;;;;17.60;8.10;;;;;;;1.16;100.00;103240.81;4957927;28;20604;-72
2023/01/23 07:22:56;;;;;;;15.05;7.93;;;;;;;1.18;100.00;103241.66;4956466;28;20031;-72
2023/01/23 07:25:24;;;;;;;15.63;7.85;;;;;;;1.20;100.00;103247.75;4954603;28;20084;-72
2023/01/23 07:27:49;;;;;;;15.00;7.93;;;;;;;1.20;100.00;103247.75;4957436;28;20165;-72
2023/01/23 07:30:16;;;;;;;15.80;8.50;;;;;;;1.17;100.00;103249.56;4959539;28;20118;-72
2023/01/23 07:32:41;;;;;;;;;;;;;;;1.18;100.00;103249.53;4955245;28;20015;-72
2023/01/23 07:35:07;;;;;;;17.52;8.60;;;;;;;1.21;100.00;103245.97;4955745;28;19919;-72
2023/01/23 07:37:33;;;;;;;16.27;8.13;;;;;;;1.22;100.00;103251.19;4950574;28;20035;-72
2023/01/23 07:39:58;;;;;;;20.08;8.45;;;;;;;1.22;100.00;103248.56;4963580;28;20710;-72
2023/01/23 07:42:24;;;;;;;22.50;8.55;;;;;;;1.20;100.00;103244.25;4955808;28;20038;-72
2023/01/23 07:44:50;;;;;;;17.42;8.65;;;;;;;1.20;100.00;103245.09;4952426;28;20118;-72
2023/01/23 07:47:16;;;;;;;18.02;8.73;;;;;;;1.22;100.00;103253.84;4944969;29;20490;-72
2023/01/23 07:49:41;;;;;;;15.95;8.68;;;;;;;1.23;100.00;103255.53;4946912;28;20043;-73
2023/01/23 07:52:06;;;;;;;19.77;9.70;;;;;;;1.19;100.00;103259.16;4951775;28;20031;-72
2023/01/23 07:54:32;;;;;;;19.48;8.80;;;;;;;1.12;100.00;103260.22;4954346;28;20285;-72
2023/01/23 07:56:57;;;;;;;14.00;7.00;;;;;;;1.17;100.00;103266.25;4956999;28;20030;-72
2023/01/23 07:59:22;;;;;;;15.60;8.30;;;;;;;1.25;100.00;103271.31;4958545;28;20296;-73
2023/01/23 08:01:50;;;;;;;17.05;8.23;;;;;;;1.27;100.00;103278.25;4926111;29;20733;-72
2023/01/23 08:04:15;;;;;;;14.93;8.27;;;;;;;1.30;100.00;103271.19;4953493;28;20396;-73
2023/01/23 08:06:41;;;;;;;16.02;8.75;;;;;;;1.29;100.00;103278.22;4954013;28;20026;-72
2023/01/23 08:09:06;;;;;;;17.90;9.35;;;;;;;1.30;100.00;103281.72;4950689;28;20066;-73
2023/01/23 08:11:31;;;;;;;14.60;8.37;;;;;;;1.30;100.00;103282.56;4947835;28;20070;-73
2023/01/23 08:13:57;;;;;;;15.73;8.33;;;;;;;1.34;100.00;103289.50;4947829;28;20278;-72
2023/01/23 08:16:22;;;;;;;18.23;8.67;;;;;;;1.38;100.00;103299.03;4930411;29;20349;-72
2023/01/23 08:18:48;;;;;;;15.63;7.93;;;;;;;1.35;100.00;103300.88;4948592;28;20031;-73
2023/01/23 08:21:13;;;;;;;15.57;8.67;;;;;;;1.37;100.00;103305.19;4950725;28;20142;-73
2023/01/23 08:23:39;;;;;;;19.03;10.07;;;;;;;1.39;100.00;103297.25;4946536;28;20847;-73
2023/01/23 08:26:07;;;;;;;24.80;8.80;;;;;;;1.45;100.00;103315.50;4952256;28;20783;-73
2023/01/23 08:28:33;;;;;;;17.80;9.15;;;;;;;1.43;100.00;103299.78;4953877;28;20070;-73
2023/01/23 08:31:04;;;;;;;15.95;8.68;;;;;;;1.45;100.00;103312.88;4944417;28;20046;-73
2023/01/23 08:33:31;;;;;;;16.08;9.05;;;;;;;1.47;100.00;103308.44;4942302;28;20043;-73
2023/01/23 08:35:57;;;;;;;25.00;8.93;;;;;;;1.45;100.00;103311.13;4951949;28;20472;-73
2023/01/23 08:38:24;;;;;;;18.25;9.40;;;;;;;1.46;100.00;103317.25;4947419;28;20026;-73
2023/01/23 08:40:52;;;;;;;17.95;8.07;;;;;;;1.51;100.00;103323.25;4951263;28;20042;-73
2023/01/23 08:43:19;;;;;;;17.10;9.10;;;;;;;1.53;100.00;103313.56;4949471;28;20090;-73
2023/01/23 08:45:48;;;;;;;18.70;10.10;;;;;;;1.55;100.00;103301.22;4949392;28;20043;-73
2023/01/23 08:48:14;;;;;;;18.60;9.82;;;;;;;1.57;100.00;103307.31;4931286;29;20110;-73
2023/01/23 08:50:40;;;;;;;15.43;8.18;;;;;;;1.57;100.00;103307.31;4957487;28;20444;-73
2023/01/23 08:53:05;;;;;;;16.80;9.52;;;;;;;1.59;100.00;103305.50;4952543;28;20038;-73
2023/01/23 08:55:31;;;;;;;16.23;9.20;;;;;;;1.62;100.00;103312.44;4951362;28;20503;-72
2023/01/23 08:57:58;;;;;;;19.83;8.95;;;;;;;1.65;100.00;103309.72;4950724;28;20031;-73
2023/01/23 09:00:24;;;;;;;18.70;9.25;;;;;;;1.63;100.00;103301.84;4953315;28;20041;-73
2023/01/23 09:02:50;;;;;;;;;;;;;;;1.69;100.00;103314.00;4953424;28;20057;-73
2023/01/23 09:05:16;;;;;;;18.88;10.40;;;;;;;1.69;100.00;103320.13;4943968;28;19918;-73
2023/01/23 09:07:41;;;;;;;17.50;9.60;;;;;;;1.66;100.00;103321.97;4953209;28;20077;-73
2023/01/23 09:10:08;;;;;;;15.80;8.73;;;;;;;1.53;100.00;103305.66;4949701;28;20038;-73
2023/01/23 09:12:33;;;;;;;20.33;10.70;;;;;;;1.63;100.00;103307.13;4963926;28;20149;-73
2023/01/23 09:14:58;;;;;;;21.50;9.80;;;;;;;1.61;100.00;103306.28;4951382;28;20118;-71
2023/01/23 09:17:24;;;;;;;22.40;10.10;;;;;;;1.51;100.00;103296.94;4942051;28;20043;-71
2023/01/23 09:19:50;;;;;;;19.65;10.50;;;;;;;1.55;100.00;103298.59;4951863;28;20295;-71
2023/01/23 09:22:16;;;;;;;20.33;10.60;;;;;;;1.56;100.00;103300.28;4951092;28;20515;-73
2023/01/23 09:24:41;;;;;;;21.25;10.63;;;;;;;1.64;100.00;103308.88;4945559;28;20031;-73
2023/01/23 09:27:07;;;;;;;21.48;11.25;;;;;;;1.78;100.00;103307.59;4951266;28;20094;-72
2023/01/23 09:29:32;;;;;;;20.05;10.63;;;;;;;1.63;100.00;103290.47;4953461;28;20074;-73
2023/01/23 09:31:58;;;;;;;19.77;10.55;;;;;;;1.55;100.00;103288.06;4950954;28;20346;-73
2023/01/23 09:34:23;;;;;;;19.07;10.37;;;;;;;1.67;100.00;103281.59;4952555;28;20023;-73
2023/01/23 09:36:49;;;;;;;20.50;10.13;;;;;;;1.69;100.00;103283.25;4951604;28;20382;-73
2023/01/23 09:39:14;;;;;;;21.35;10.95;;;;;;;1.81;100.00;103294.38;4948212;28;20031;-73
2023/01/23 09:41:42;;;;;;;23.38;10.73;;;;;;;1.89;100.00;103297.63;4948899;28;20035;-73
2023/01/23 09:44:19;;;;;;;24.27;11.63;;;;;;;1.94;100.00;103301.00;4950595;28;20031;-73
2023/01/23 09:47:01;;;;;;;28.88;10.90;;;;;;;1.98;100.00;103296.50;4953199;28;20061;-73
2023/01/23 09:49:40;;;;;;;21.40;10.35;;;;;;;2.00;100.00;103282.38;4951803;28;20477;-73
2023/01/23 09:52:32;;;;;;;31.85;10.98;;;;;;;2.09;100.00;103276.84;4944329;28;20039;-72
2023/01/23 09:55:12;;;;;;;23.80;9.88;;;;;;;2.10;100.00;103260.09;4931323;29;20126;-73
2023/01/23 09:57:46;;;;;;;17.13;9.63;;;;;;;2.01;100.00;103254.25;4957004;28;20038;-73
2023/01/23 10:00:18;;;;;;;19.35;9.10;;;;;;;2.13;100.00;103245.13;4953986;28;20492;-73
2023/01/23 10:02:44;;;;;;;25.95;9.45;;;;;;;2.16;100.00;103239.78;4963038;28;20093;-73
2023/01/23 10:05:15;;;;;;;28.95;10.98;;;;;;;2.20;100.00;103244.03;4950634;28;20023;-73
2023/01/23 10:08:34;;;;;;;17.13;9.65;;;;;;;2.30;100.00;103235.78;4932692;29;20042;-72
2023/01/23 10:11:29;;;;;;;17.30;9.45;;;;;;;2.39;100.00;103232.00;4893575;29;20099;-72
2023/01/23 10:14:08;;;;;;;22.02;11.85;;;;;;;2.38;100.00;103229.41;4948385;29;20039;-73
2023/01/23 10:16:55;;;;;;;18.40;10.10;;;;;;;2.43;100.00;103225.69;4955718;28;20808;-73
2023/01/23 10:19:35;;;;;;;21.33;11.73;;;;;;;2.43;100.00;103219.56;4954610;28;20539;-73
2023/01/23 10:22:09;;;;;;;19.90;10.20;;;;;;;2.37;100.00;103215.38;4940934;28;20035;-73
2023/01/23 10:24:53;;;;;;;17.75;9.63;;;;;;;2.26;100.00;103209.56;4964438;28;20489;-73
2023/01/23 10:27:25;;;;;;;18.95;9.80;;;;;;;2.14;100.00;103195.00;4946307;28;20039;-73
2023/01/23 10:30:01;;;;;;;23.35;10.10;;;;;;;2.05;100.00;103198.78;4932699;29;20046;-73
2023/01/23 10:32:28;;;;;;;;;;;;;;;2.19;100.00;103201.00;4956814;28;20034;-73
2023/01/23 10:35:04;;;;;;;22.10;10.75;;;;;;;2.27;100.00;103213.91;4953805;28;20016;-73
2023/01/23 10:37:58;;;;;;;19.83;10.68;;;;;;;2.23;100.00;103201.78;4954583;28;20678;-73
2023/01/23 10:43:12;;;;;;;18.60;10.93;;;;;;;2.11;100.00;103190.69;4951356;28;20046;-73
2023/01/23 10:45:38;;;;;;;19.17;10.35;;;;;;;2.29;100.00;103202.44;4956088;28;20023;-73
2023/01/23 10:48:40;;;;;;;18.45;10.18;;;;;;;2.40;100.00;103203.88;4947354;28;20035;-73
2023/01/23 10:51:25;;;;;;;19.52;10.27;;;;;;;2.34;100.00;103197.00;4947186;28;20035;-73
2023/01/23 10:54:11;;;;;;;19.17;10.83;;;;;;;2.18;100.00;103172.91;4949329;28;20039;-73
2023/01/23 10:56:50;;;;;;;20.83;10.02;;;;;;;2.26;100.00;103186.69;4947535;29;20340;-72
2023/01/23 10:59:40;;;;;;;25.08;11.32;;;;;;;2.28;100.00;103174.34;4948634;28;20031;-72
2023/01/23 11:02:11;;;;;;;20.25;9.40;;;;;;;2.34;100.00;103170.63;4948606;28;20039;-72
2023/01/23 11:04:36;;;;;;;15.90;9.63;;;;;;;2.51;100.00;103194.69;4948966;28;20031;-72
2023/01/23 11:07:18;;;;;;;20.80;10.23;;;;;;;2.54;100.00;103191.94;4948852;28;20041;-73
2023/01/23 11:09:54;;;;;;;24.40;10.55;;;;;;;2.57;100.00;103183.06;4963072;28;20046;-73
2023/01/23 11:12:22;;;;;;;;;;;;;;;2.45;100.00;103159.75;4948278;28;20038;-73
2023/01/23 11:14:48;;;;;;;27.65;11.45;;;;;;;2.45;100.00;103155.31;4953824;28;20000;-72
2023/01/23 11:17:16;;;;;;;23.98;11.60;;;;;;;2.44;100.00;103158.88;4953031;28;20407;-72
2023/01/23 11:19:44;;;;;;;24.15;10.82;;;;;;;2.44;100.00;103156.25;4948203;28;20049;-73
2023/01/23 11:22:28;;;;;;;18.90;9.85;;;;;;;2.59;100.00;103177.75;4950040;28;20050;-71
2023/01/23 11:24:54;;;;;;;18.57;9.63;;;;;;;2.75;100.00;103189.50;4952286;28;20094;-71
2023/01/23 11:27:26;;;;;;;26.00;12.02;;;;;;;2.75;100.00;103189.50;4931685;28;20275;-71
2023/01/23 11:30:07;;;;;;;23.98;10.73;;;;;;;2.68;100.00;103167.75;4951067;28;20117;-71
2023/01/23 11:32:41;;;;;;;20.30;10.02;;;;;;;2.79;100.00;103175.31;4944588;28;20043;-70
2023/01/23 11:35:18;;;;;;;21.40;10.35;;;;;;;2.84;100.00;103183.91;4946530;28;20039;-71
2023/01/23 11:37:44;;;;;;;26.02;10.85;;;;;;;2.86;100.00;103181.25;4947455;28;20035;-71
2023/01/23 11:40:16;;;;;;;23.27;10.07;;;;;;;2.89;100.00;103181.97;4950397;28;20031;-71